createdAt,value
2018-12-15T00:00:19.498Z,1.14
2018-12-15T00:02:56.667Z,1.16
2018-12-15T00:05:25.763Z,1.17
2018-12-15T00:08:08.251Z,1.17
2018-12-15T00:10:40.855Z,1.17
2018-12-15T00:13:13.853Z,1.14
2018-12-15T00:15:50.419Z,1.13
2018-12-15T00:18:26.531Z,1.15
2018-12-15T00:20:59.773Z,1.13
2018-12-15T00:23:36.571Z,1.13
2018-12-15T00:26:09.417Z,1.15
2018-12-15T00:28:46.186Z,1.16
2018-12-15T00:31:15.737Z,1.15
2018-12-15T00:33:48.014Z,1.16
2018-12-15T00:36:21.260Z,1.17
2018-12-15T00:38:58.811Z,1.18
2018-12-15T00:41:31.788Z,1.17
2018-12-15T00:44:04.613Z,1.17
2018-12-15T00:46:37.475Z,1.20
2018-12-15T00:49:08.349Z,1.21
2018-12-15T00:51:41.285Z,1.21
2018-12-15T00:56:39.432Z,1.23
2018-12-15T00:59:08.598Z,1.24
2018-12-15T01:01:41.706Z,1.25
2018-12-15T01:04:14.367Z,1.27
2018-12-15T01:06:47.476Z,1.25
2018-12-15T01:09:24.526Z,1.22
2018-12-15T01:12:01.378Z,1.20
2018-12-15T01:17:57.937Z,1.21
2018-12-15T01:20:30.683Z,1.23
2018-12-15T01:23:03.642Z,1.22
2018-12-15T01:25:40.181Z,1.22
2018-12-15T01:28:17.054Z,1.20
2018-12-15T01:30:50.057Z,1.19
2018-12-15T01:33:27.334Z,1.20
2018-12-15T01:36:03.930Z,1.20
2018-12-15T01:38:40.752Z,1.22
2018-12-15T01:41:13.526Z,1.21
2018-12-15T01:43:47.577Z,1.20
2018-12-15T01:46:20.353Z,1.21
2018-12-15T01:48:53.165Z,1.21
2018-12-15T01:51:25.945Z,1.20
2018-12-15T01:53:59.130Z,1.22
2018-12-15T01:56:36.195Z,1.21
2018-12-15T02:04:10.246Z,1.19
2018-12-15T02:06:46.393Z,1.20
2018-12-15T02:09:23.390Z,1.23
2018-12-15T02:12:00.210Z,1.25
2018-12-15T02:14:33.279Z,1.27
2018-12-15T02:17:05.454Z,1.29
2018-12-15T02:19:38.582Z,1.28
2018-12-15T02:22:11.328Z,1.30
2018-12-15T02:24:43.667Z,1.30
2018-12-15T02:27:16.351Z,1.30
2018-12-15T02:29:49.180Z,1.29
2018-12-15T02:32:26.255Z,1.27
2018-12-15T02:34:57.054Z,1.25
2018-12-15T02:37:34.071Z,1.22
2018-12-15T02:40:07.733Z,1.21
2018-12-15T02:42:44.337Z,1.20
2018-12-15T02:45:17.370Z,1.19
2018-12-15T02:47:50.253Z,1.19
2018-12-15T02:50:23.059Z,1.21
2018-12-15T02:52:59.954Z,1.21
2018-12-15T02:55:36.913Z,1.20
2018-12-15T02:58:13.804Z,1.19
2018-12-15T03:00:46.831Z,1.18
2018-12-15T03:03:19.797Z,1.18
2018-12-15T03:05:56.073Z,1.18
2018-12-15T03:08:32.861Z,1.18
2018-12-15T03:11:05.662Z,1.16
2018-12-15T03:13:36.530Z,1.16
2018-12-15T03:16:13.437Z,1.16
2018-12-15T03:18:50.147Z,1.15
2018-12-15T03:21:23.032Z,1.14
2018-12-15T03:24:00.063Z,1.14
2018-12-15T03:26:37.150Z,1.15
2018-12-15T03:29:08.078Z,1.16
2018-12-15T03:31:41.066Z,1.17
2018-12-15T03:34:17.289Z,1.17
2018-12-15T03:36:54.202Z,1.17
2018-12-15T03:39:26.964Z,1.16
2018-12-15T03:41:59.932Z,1.16
2018-12-15T03:44:32.734Z,1.17
2018-12-15T03:47:08.884Z,1.16
2018-12-15T03:49:45.807Z,1.13
2018-12-15T03:52:18.754Z,1.13
2018-12-15T03:54:51.554Z,1.14
2018-12-15T03:57:24.589Z,1.14
2018-12-15T04:00:01.228Z,1.13
2018-12-15T04:02:32.569Z,1.13
2018-12-15T04:05:08.946Z,1.13
2018-12-15T04:07:42.010Z,1.13
2018-12-15T04:10:19.162Z,1.13
2018-12-15T04:12:49.669Z,1.13
2018-12-15T04:15:22.753Z,1.12
2018-12-15T04:18:03.696Z,1.11
2018-12-15T04:20:33.730Z,1.09
2018-12-15T04:23:09.934Z,1.10
2018-12-15T04:25:42.821Z,1.10
2018-12-15T04:28:15.835Z,1.09
2018-12-15T04:30:48.778Z,1.10
2018-12-15T04:33:25.790Z,1.09
2018-12-15T04:35:56.339Z,1.11
2018-12-15T04:38:33.483Z,1.11
2018-12-15T04:41:10.253Z,1.12
2018-12-15T04:43:47.306Z,1.10
2018-12-15T04:46:19.979Z,1.09
2018-12-15T04:48:52.242Z,1.09
2018-12-15T04:51:24.954Z,1.08
2018-12-15T04:53:55.895Z,1.11
2018-12-15T04:56:32.742Z,1.11
2018-12-15T04:59:09.641Z,1.12
2018-12-15T05:01:40.430Z,1.10
2018-12-15T05:04:17.468Z,1.10
2018-12-15T05:06:54.414Z,1.11
2018-12-15T05:09:27.261Z,1.11
2018-12-15T05:12:00.113Z,1.11
2018-12-15T05:14:33.168Z,1.12
2018-12-15T05:17:10.159Z,1.12
2018-12-15T05:19:46.969Z,1.12
2018-12-15T05:22:23.998Z,1.13
2018-12-15T05:24:56.903Z,1.13
2018-12-15T05:27:33.955Z,1.12
2018-12-15T05:30:11.111Z,1.13
2018-12-15T05:32:44.476Z,1.12
2018-12-15T05:35:21.370Z,1.12
2018-12-15T05:37:57.608Z,1.12
2018-12-15T05:40:30.431Z,1.13
2018-12-15T05:43:01.293Z,1.13
2018-12-15T05:45:34.167Z,1.13
2018-12-15T05:48:11.650Z,1.10
2018-12-15T05:50:44.285Z,1.10
2018-12-15T05:53:16.469Z,1.11
2018-12-15T05:55:47.402Z,1.09
2018-12-15T05:58:24.247Z,1.09
2018-12-15T06:01:00.451Z,1.10
2018-12-15T06:03:33.579Z,1.10
2018-12-15T06:06:10.565Z,1.11
2018-12-15T06:08:41.567Z,1.11
2018-12-15T06:11:14.443Z,1.10
2018-12-15T06:23:46.019Z,1.11
2018-12-15T06:26:22.711Z,1.10
2018-12-15T06:28:59.319Z,1.11
2018-12-15T06:31:32.434Z,1.11
2018-12-15T06:34:09.475Z,1.10
2018-12-15T06:37:26.708Z,1.11
2018-12-15T06:39:58.975Z,1.12
2018-12-15T06:42:31.228Z,1.13
2018-12-15T06:45:03.999Z,1.12
2018-12-15T06:47:41.067Z,1.11
2018-12-15T06:50:13.663Z,1.11
2018-12-15T06:52:46.838Z,1.11
2018-12-15T06:55:16.151Z,1.11
2018-12-15T06:57:49.217Z,1.12
2018-12-15T07:00:26.059Z,1.12
2018-12-15T07:02:57.080Z,1.13
2018-12-15T07:05:29.830Z,1.15
2018-12-15T07:08:06.694Z,1.15
2018-12-15T07:10:39.683Z,1.16
2018-12-15T07:13:12.595Z,1.18
2018-12-15T07:15:46.706Z,1.16
2018-12-15T07:18:19.923Z,1.11
2018-12-15T07:20:53.002Z,1.15
2018-12-15T07:26:01.599Z,1.19
2018-12-15T07:28:34.844Z,1.22
2018-12-15T07:31:05.828Z,1.23
2018-12-15T07:33:42.633Z,1.25
2018-12-15T07:36:15.555Z,1.23
2018-12-15T07:38:48.399Z,1.25
2018-12-15T07:41:21.479Z,1.27
2018-12-15T07:43:54.414Z,1.28
2018-12-15T07:46:27.343Z,1.29
2018-12-15T07:49:00.211Z,1.32
2018-12-15T07:51:37.207Z,1.35
2018-12-15T07:54:10.023Z,1.33
2018-12-15T07:56:43.098Z,1.33
2018-12-15T07:59:19.951Z,1.35
2018-12-15T08:01:53.016Z,1.34
2018-12-15T08:04:26.282Z,1.35
2018-12-15T08:06:58.847Z,1.37
2018-12-15T08:09:29.543Z,1.35
2018-12-15T08:12:11.434Z,1.40
2018-12-15T08:14:47.682Z,1.44
2018-12-15T08:17:24.898Z,1.48
2018-12-15T08:20:01.675Z,1.50
2018-12-15T08:22:34.627Z,1.52
2018-12-15T08:25:08.354Z,1.54
2018-12-15T08:27:40.664Z,1.55
2018-12-15T08:30:17.759Z,1.58
2018-12-15T08:32:48.699Z,1.59
2018-12-15T08:35:25.913Z,1.63
2018-12-15T08:37:58.574Z,1.69
2018-12-15T08:40:35.710Z,1.72
2018-12-15T08:43:08.571Z,1.75
2018-12-15T08:45:45.649Z,1.76
2018-12-15T08:48:22.482Z,1.81
2018-12-15T08:50:51.895Z,1.83
2018-12-15T08:53:24.180Z,1.84
2018-12-15T08:55:55.339Z,1.89
2018-12-15T08:58:32.006Z,1.95
2018-12-15T09:01:04.903Z,1.93
2018-12-15T09:03:37.760Z,1.97
2018-12-15T09:06:14.779Z,2.00
2018-12-15T09:08:47.718Z,2.03
2018-12-15T09:11:20.855Z,2.09
2018-12-15T09:13:57.483Z,2.10
2018-12-15T09:16:33.755Z,2.14
2018-12-15T09:19:11.374Z,2.17
2018-12-15T09:21:48.812Z,2.19
2018-12-15T09:24:21.898Z,2.23
2018-12-15T09:26:58.587Z,2.29
2018-12-15T09:29:35.411Z,2.34
2018-12-15T09:32:12.667Z,2.34
2018-12-15T09:34:50.531Z,2.34
2018-12-15T09:37:23.331Z,2.35
2018-12-15T09:40:00.162Z,2.39
2018-12-15T09:42:33.118Z,2.42
2018-12-15T09:45:06.017Z,2.46
2018-12-15T09:47:42.623Z,2.50
2018-12-15T09:50:15.536Z,2.56
2018-12-15T09:52:48.751Z,2.61
2018-12-15T09:55:21.770Z,2.65
2018-12-15T09:57:54.826Z,2.67
2018-12-15T10:00:27.911Z,2.69
2018-12-15T10:03:00.787Z,2.69
2018-12-15T10:05:33.691Z,2.70
2018-12-15T10:08:10.495Z,2.71
2018-12-15T10:10:43.566Z,2.73
2018-12-15T10:13:20.537Z,2.73
2018-12-15T10:15:53.452Z,2.73
2018-12-15T10:18:25.694Z,2.76
2018-12-15T10:21:02.687Z,2.78
2018-12-15T10:23:35.527Z,2.82
2018-12-15T10:26:08.519Z,2.87
2018-12-15T10:28:45.346Z,2.76
2018-12-15T10:31:23.535Z,2.72
2018-12-15T10:33:59.965Z,2.75
2018-12-15T10:36:32.843Z,2.78
2018-12-15T10:39:10.318Z,2.76
2018-12-15T10:41:46.862Z,2.76
2018-12-15T10:44:19.460Z,2.78
2018-12-15T10:46:52.443Z,2.77
2018-12-15T10:49:30.664Z,2.72
2018-12-15T10:51:59.847Z,2.71
2018-12-15T10:54:37.535Z,2.70
2018-12-15T10:57:14.886Z,2.68
2018-12-15T10:59:47.819Z,2.64
2018-12-15T11:02:24.115Z,2.62
2018-12-15T11:04:57.058Z,2.63
2018-12-15T11:07:26.214Z,2.72
2018-12-15T11:10:02.587Z,2.70
2018-12-15T11:12:35.494Z,2.66
2018-12-15T11:15:12.562Z,2.67
2018-12-15T11:17:45.416Z,2.75
2018-12-15T11:20:21.555Z,2.71
2018-12-15T11:23:07.906Z,2.70
2018-12-15T11:25:44.559Z,2.67
2018-12-15T11:28:21.415Z,2.66
2018-12-15T11:30:54.258Z,2.64
2018-12-15T11:33:31.095Z,2.68
2018-12-15T11:36:03.859Z,2.66
2018-12-15T11:38:40.843Z,2.67
2018-12-15T11:41:13.691Z,2.63
2018-12-15T11:43:46.775Z,2.64
2018-12-15T11:46:19.384Z,2.66
2018-12-15T11:48:56.331Z,2.69
2018-12-15T11:52:04.341Z,2.73
2018-12-15T11:54:36.915Z,2.71
2018-12-15T11:57:09.599Z,2.64
2018-12-15T11:59:43.060Z,2.69
2018-12-15T12:02:19.426Z,2.67
2018-12-15T12:04:52.475Z,2.67
2018-12-15T12:07:25.422Z,2.70
2018-12-15T12:09:56.559Z,2.74
2018-12-15T12:12:30.220Z,2.75
2018-12-15T12:15:07.586Z,2.66
2018-12-15T12:17:44.153Z,2.64
2018-12-15T12:20:21.024Z,2.59
2018-12-15T12:22:58.159Z,2.52
2018-12-15T12:25:35.018Z,2.54
2018-12-15T12:28:11.971Z,2.49
2018-12-15T12:30:49.018Z,2.46
2018-12-15T12:33:21.714Z,2.40
2018-12-15T12:38:24.439Z,2.41
2018-12-15T12:40:57.482Z,2.38
2018-12-15T12:43:30.298Z,2.41
2018-12-15T12:46:03.296Z,2.46
2018-12-15T12:48:36.422Z,2.50
2018-12-15T12:51:09.443Z,2.50
2018-12-15T12:53:42.536Z,2.59
2018-12-15T12:56:13.681Z,2.64
2018-12-15T12:58:50.691Z,2.69
2018-12-15T13:01:26.969Z,2.65
2018-12-15T13:03:59.075Z,2.65
2018-12-15T13:06:32.289Z,2.54
2018-12-15T13:09:09.259Z,2.55
2018-12-15T13:11:46.203Z,2.54
2018-12-15T13:14:26.417Z,2.47
2018-12-15T13:16:58.935Z,2.42
2018-12-15T13:19:35.843Z,2.48
2018-12-15T13:22:08.964Z,2.41
2018-12-15T13:24:45.957Z,2.40
2018-12-15T13:27:15.235Z,2.42
2018-12-15T13:29:47.774Z,2.45
2018-12-15T13:32:20.655Z,2.43
2018-12-15T13:34:57.795Z,2.39
2018-12-15T13:37:34.734Z,2.28
2018-12-15T13:45:08.794Z,2.29
2018-12-15T13:47:41.643Z,2.28
2018-12-15T13:50:14.611Z,2.30
2018-12-15T13:52:51.702Z,2.31
2018-12-15T13:55:28.903Z,2.27
2018-12-15T13:58:05.832Z,2.18
2018-12-15T14:00:42.456Z,2.12
2018-12-15T14:03:15.375Z,2.08
2018-12-15T14:05:48.375Z,2.04
2018-12-15T14:08:21.587Z,1.98
2018-12-15T14:10:54.730Z,1.96
2018-12-15T14:13:27.660Z,1.88
2018-12-15T14:15:59.901Z,1.77
2018-12-15T14:18:32.851Z,1.69
2018-12-15T14:21:05.277Z,1.58
2018-12-15T14:23:41.815Z,1.53
2018-12-15T14:26:18.693Z,1.48
2018-12-15T14:28:55.847Z,1.43
2018-12-15T14:31:28.942Z,1.37
2018-12-15T14:34:01.474Z,1.37
2018-12-15T14:36:38.382Z,1.35
2018-12-15T14:39:15.175Z,1.35
2018-12-15T14:41:51.428Z,1.37
2018-12-15T14:44:24.447Z,1.38
2018-12-15T14:47:01.403Z,1.34
2018-12-15T14:49:38.533Z,1.29
2018-12-15T14:52:14.983Z,1.27
2018-12-15T14:54:51.870Z,1.23
2018-12-15T14:57:28.970Z,1.21
2018-12-15T15:00:01.363Z,1.22
2018-12-15T15:02:38.636Z,1.16
2018-12-15T15:05:11.840Z,1.14
2018-12-15T15:07:44.728Z,1.07
2018-12-15T15:10:15.235Z,1.03
2018-12-15T15:12:48.136Z,1.00
2018-12-15T15:15:21.212Z,0.97
2018-12-15T15:17:53.915Z,0.95
2018-12-15T15:20:29.811Z,0.94
2018-12-15T15:23:04.263Z,0.95
2018-12-15T15:25:37.451Z,0.96
2018-12-15T15:28:10.218Z,0.90
2018-12-15T15:30:43.111Z,0.83
2018-12-15T15:33:16.704Z,0.82
2018-12-15T15:35:50.855Z,0.76
2018-12-15T15:38:23.562Z,0.70
2018-12-15T15:41:01.186Z,0.73
2018-12-15T15:43:34.608Z,0.74
2018-12-15T15:46:07.488Z,0.69
2018-12-15T15:48:44.303Z,0.68
2018-12-15T15:51:17.123Z,0.64
2018-12-15T15:53:47.914Z,0.61
2018-12-15T15:56:25.100Z,0.59
2018-12-15T15:58:54.577Z,0.59
2018-12-15T16:01:34.963Z,0.59
2018-12-15T16:04:30.787Z,0.57
2018-12-15T16:07:04.173Z,0.54
2018-12-15T16:09:33.708Z,0.51
2018-12-15T16:12:05.224Z,0.49
2018-12-15T16:14:38.484Z,0.48
2018-12-15T16:17:07.883Z,0.49
2018-12-15T16:19:41.348Z,0.52
2018-12-15T16:22:18.658Z,0.54
2018-12-15T16:24:56.213Z,0.57
2018-12-15T16:27:27.055Z,0.59
2018-12-15T16:29:59.670Z,0.60
2018-12-15T16:32:36.591Z,0.60
2018-12-15T16:35:13.318Z,0.58
2018-12-15T16:37:46.169Z,0.56
2018-12-15T16:40:15.795Z,0.58
2018-12-15T16:42:52.808Z,0.57
2018-12-15T16:45:30.558Z,0.60
2018-12-15T16:48:07.555Z,0.56
2018-12-15T16:50:40.718Z,0.55
2018-12-15T16:53:18.294Z,0.51
2018-12-15T16:55:55.476Z,0.47
2018-12-15T16:58:24.983Z,0.44
2018-12-15T17:01:00.020Z,0.40
2018-12-15T17:03:32.680Z,0.36
2018-12-15T17:06:03.676Z,0.31
2018-12-15T17:08:40.867Z,0.21
2018-12-15T17:11:14.543Z,0.05
2018-12-15T17:13:52.513Z,-0.13
2018-12-15T17:16:29.287Z,-0.25
2018-12-15T17:19:06.255Z,-0.39
2018-12-15T17:21:37.053Z,-0.44
2018-12-15T17:24:13.760Z,-0.49
2018-12-15T17:26:46.743Z,-0.55
2018-12-15T17:29:19.669Z,-0.57
2018-12-15T17:31:56.495Z,-0.62
2018-12-15T17:34:33.229Z,-0.65
2018-12-15T17:37:06.104Z,-0.73
2018-12-15T17:39:42.911Z,-0.79
2018-12-15T17:42:19.858Z,-0.94
2018-12-15T17:44:56.892Z,-1.07
2018-12-15T17:47:33.744Z,-1.18
2018-12-15T17:50:07.630Z,-1.28
2018-12-15T17:52:41.067Z,-1.36
2018-12-15T17:55:12.720Z,-1.43
2018-12-15T17:57:45.654Z,-1.50
2018-12-15T18:00:22.372Z,-1.60
2018-12-15T18:02:59.114Z,-1.69
2018-12-15T18:05:35.863Z,-1.75
2018-12-15T18:08:08.491Z,-1.82
2018-12-15T18:10:38.091Z,-1.87
2018-12-15T18:13:12.174Z,-1.92
2018-12-15T18:15:43.406Z,-1.98
2018-12-15T18:18:16.703Z,-2.01
2018-12-15T18:20:50.313Z,-2.04
2018-12-15T18:23:23.593Z,-2.03
2018-12-15T18:26:00.247Z,-2.04
2018-12-15T18:28:33.293Z,-2.09
2018-12-15T18:31:11.203Z,-2.15
2018-12-15T18:33:44.007Z,-2.21
2018-12-15T18:36:17.334Z,-2.24
2018-12-15T18:38:50.912Z,-2.28
2018-12-15T18:41:24.071Z,-2.29
2018-12-15T18:43:54.955Z,-2.31
2018-12-15T18:46:27.735Z,-2.34
2018-12-15T19:16:38.155Z,-2.41
2018-12-15T19:19:11.100Z,-2.42
2018-12-15T19:21:44.299Z,-2.46
2018-12-15T19:24:17.317Z,-2.44
2018-12-15T19:26:50.263Z,-2.42
2018-12-15T19:29:27.219Z,-2.45
2018-12-15T19:31:59.963Z,-2.46
2018-12-15T19:34:36.925Z,-2.51
2018-12-15T19:37:09.623Z,-2.51
2018-12-15T19:39:42.663Z,-2.51
2018-12-15T19:42:15.615Z,-2.54
2018-12-15T19:44:52.635Z,-2.58
2018-12-15T19:47:25.575Z,-2.66
2018-12-15T19:49:58.829Z,-2.69
2018-12-15T19:52:35.582Z,-2.71
2018-12-15T19:55:08.704Z,-2.74
2018-12-15T19:57:41.670Z,-2.77
2018-12-15T20:00:18.739Z,-2.76
2018-12-15T20:02:51.711Z,-2.72
2018-12-15T20:05:22.611Z,-2.73
2018-12-15T20:07:55.855Z,-2.74
2018-12-15T20:10:28.867Z,-2.72
2018-12-15T20:13:01.591Z,-2.72
2018-12-15T20:15:34.800Z,-2.68
2018-12-15T20:18:12.564Z,-2.69
2018-12-15T20:20:45.479Z,-2.71
2018-12-15T20:23:16.711Z,-2.73
2018-12-15T20:25:53.807Z,-2.74
2018-12-15T20:28:26.534Z,-2.76
2018-12-15T20:30:59.576Z,-2.77
2018-12-15T20:33:32.409Z,-2.83
2018-12-15T20:36:05.295Z,-2.86
2018-12-15T20:38:40.873Z,-2.87
2018-12-15T20:41:14.312Z,-2.87
2018-12-15T20:43:47.203Z,-2.87
2018-12-15T20:46:20.279Z,-2.93
2018-12-15T20:48:57.535Z,-2.98
2018-12-15T20:51:30.672Z,-3.01
2018-12-15T20:54:03.883Z,-3.03
2018-12-15T20:56:38.950Z,-3.04
2018-12-15T20:59:11.955Z,-3.02
2018-12-15T21:01:43.059Z,-3.04
2018-12-15T21:04:16.459Z,-3.03
2018-12-15T21:06:49.630Z,-3.00
2018-12-15T21:09:22.439Z,-3.02
2018-12-15T21:11:53.556Z,-3.03
2018-12-15T21:14:31.795Z,-3.06
2018-12-15T21:17:08.498Z,-3.07
2018-12-15T21:19:39.494Z,-3.08
2018-12-15T21:22:16.533Z,-3.04
2018-12-15T21:24:49.307Z,-3.06
2018-12-15T21:27:22.371Z,-3.04
2018-12-15T21:29:59.639Z,-3.06
2018-12-15T21:32:36.294Z,-3.04
2018-12-15T21:35:09.186Z,-3.05
2018-12-15T21:37:42.320Z,-3.06
2018-12-15T21:40:15.374Z,-3.05
2018-12-15T21:42:48.597Z,-3.06
2018-12-15T21:45:21.435Z,-3.12
2018-12-15T21:47:57.531Z,-3.14
2018-12-15T21:50:31.359Z,-3.13
2018-12-15T21:53:04.270Z,-3.13
2018-12-15T21:55:36.931Z,-3.13
2018-12-15T21:58:10.578Z,-3.13
2018-12-15T22:00:43.755Z,-3.13
2018-12-15T22:03:16.416Z,-3.18
2018-12-15T22:05:53.092Z,-3.19
2018-12-15T22:08:26.279Z,-3.19
2018-12-15T22:10:58.992Z,-3.23
2018-12-15T22:13:30.063Z,-3.23
2018-12-15T22:16:03.198Z,-3.27
2018-12-15T22:18:35.870Z,-3.35
2018-12-15T22:21:13.077Z,-3.32
2018-12-15T22:23:46.002Z,-3.33
2018-12-15T22:26:19.015Z,-3.32
2018-12-15T22:28:52.078Z,-3.33
2018-12-15T22:31:24.184Z,-3.34
2018-12-15T22:33:57.286Z,-3.34
2018-12-15T22:36:30.115Z,-3.33
2018-12-15T22:39:03.635Z,-3.34
2018-12-15T22:41:36.155Z,-3.37
2018-12-15T22:44:09.207Z,-3.38
2018-12-15T22:46:42.011Z,-3.36
2018-12-15T22:49:14.901Z,-3.33
2018-12-15T22:51:47.907Z,-3.30
2018-12-15T22:54:24.142Z,-3.26
2018-12-15T22:56:57.232Z,-3.24
2018-12-15T22:59:30.131Z,-3.19
2018-12-15T23:02:03.731Z,-3.21
2018-12-15T23:04:40.321Z,-3.23
2018-12-15T23:07:13.112Z,-3.25
2018-12-15T23:09:46.253Z,-3.29
2018-12-15T23:12:19.217Z,-3.26
2018-12-15T23:14:52.153Z,-3.21
2018-12-15T23:17:29.259Z,-3.19
2018-12-15T23:20:07.732Z,-3.18
2018-12-15T23:22:38.163Z,-3.18
2018-12-15T23:25:15.001Z,-3.17
2018-12-15T23:27:48.237Z,-3.12
2018-12-15T23:30:19.158Z,-3.07
2018-12-15T23:32:52.262Z,-3.01
2018-12-15T23:35:29.291Z,-2.95
2018-12-15T23:38:02.441Z,-2.89
2018-12-15T23:40:35.352Z,-2.80
2018-12-15T23:43:12.297Z,-2.73
2018-12-15T23:45:45.172Z,-2.66
2018-12-15T23:48:18.059Z,-2.54
2018-12-15T23:50:50.735Z,-2.44
2018-12-15T23:53:22.974Z,-2.37
2018-12-15T23:55:55.998Z,-2.31
2018-12-15T23:58:32.916Z,-2.20
